Time;durP1;ratioP1;P1;durP2;ratioP2;P2;SDS_P1;SDS_P2;PMS_P1;PMS_P2;Temp;Humidity;BMP_temperature;BMP_pressure;BME280_temperature;BME280_humidity;BME280_pressure;Samples;Min_cycle;Max_cycle;Signal;HPM_P1;HPM_P2
2023/07/21 00:01:12;;;;;;;29.40;16.92;;;;;;;;;;10341364;28;20068;-69
2023/07/21 00:06:09;;;;;;;15.80;10.10;;;;;;;;;;10346195;28;20045;-69
2023/07/21 00:11:06;;;;;;;10.82;7.35;;;;;;;;;;10348907;28;20055;-68
2023/07/21 00:16:03;;;;;;;6.93;6.10;;;;;;;;;;10346462;28;20044;-69
2023/07/21 00:21:00;;;;;;;6.68;5.70;;;;;;;;;;10341942;28;20084;-67
2023/07/21 00:25:56;;;;;;;8.25;7.03;;;;;;;;;;10347849;28;20056;-68
2023/07/21 00:30:52;;;;;;;10.98;7.93;;;;;;;;;;10350451;28;20113;-68
2023/07/21 00:35:49;;;;;;;6.53;5.70;;;;;;;;;;10334502;28;20124;-69
2023/07/21 00:40:46;;;;;;;7.43;6.00;;;;;;;;;;10339885;28;20059;-68
2023/07/21 00:45:43;;;;;;;7.60;6.20;;;;;;;;;;10343989;28;20048;-68
2023/07/21 00:50:42;;;;;;;6.18;5.68;;;;;;;;;;10352748;28;20044;-68
2023/07/21 00:55:41;;;;;;;8.82;5.55;;;;;;;;;;10343411;28;20059;-68
2023/07/21 01:00:38;;;;;;;7.60;5.40;;;;;;;;;;10341735;28;20058;-68
2023/07/21 01:05:38;;;;;;;7.25;6.03;;;;;;;;;;10342981;28;20127;-67
2023/07/21 01:10:36;;;;;;;6.72;6.00;;;;;;;;;;10346606;28;20077;-68
2023/07/21 01:15:34;;;;;;;6.82;6.13;;;;;;;;;;10349228;28;20044;-68
2023/07/21 01:20:30;;;;;;;8.52;7.60;;;;;;;;;;10335066;28;20738;-68
2023/07/21 01:25:28;;;;;;;9.07;6.72;;;;;;;;;;10331461;28;20049;-68
2023/07/21 01:30:26;;;;;;;7.53;6.43;;;;;;;;;;10348247;28;20056;-68
2023/07/21 01:35:22;;;;;;;7.05;6.32;;;;;;;;;;10332458;28;20052;-67
2023/07/21 01:40:19;;;;;;;7.85;6.57;;;;;;;;;;10348656;28;20094;-68
2023/07/21 01:45:16;;;;;;;7.72;7.03;;;;;;;;;;10340477;28;20052;-68
2023/07/21 01:50:13;;;;;;;7.55;6.85;;;;;;;;;;10341990;28;20432;-68
2023/07/21 01:55:10;;;;;;;7.93;7.03;;;;;;;;;;10349991;28;20052;-68
2023/07/21 02:00:10;;;;;;;9.07;7.30;;;;;;;;;;10333806;28;20588;-67
2023/07/21 02:05:16;;;;;;;7.50;6.82;;;;;;;;;;10337837;28;20063;-67
2023/07/21 02:10:13;;;;;;;8.55;7.70;;;;;;;;;;10348266;28;20495;-67
2023/07/21 02:15:09;;;;;;;9.30;7.70;;;;;;;;;;10344233;28;20048;-67
2023/07/21 02:20:09;;;;;;;7.85;7.15;;;;;;;;;;10346931;28;20056;-67
2023/07/21 02:25:06;;;;;;;10.02;7.57;;;;;;;;;;10350753;28;20052;-67
2023/07/21 02:30:03;;;;;;;9.23;7.93;;;;;;;;;;10351875;28;20052;-67
2023/07/21 02:35:00;;;;;;;7.97;7.28;;;;;;;;;;10349165;28;20807;-67
2023/07/21 02:39:56;;;;;;;9.80;7.40;;;;;;;;;;10358022;28;20048;-68
2023/07/21 02:44:52;;;;;;;8.13;7.43;;;;;;;;;;10344428;28;20105;-67
2023/07/21 02:49:49;;;;;;;9.00;7.75;;;;;;;;;;10366661;28;20052;-67
2023/07/21 02:54:49;;;;;;;8.95;8.05;;;;;;;;;;10340870;28;20055;-67
2023/07/21 02:59:46;;;;;;;8.82;7.95;;;;;;;;;;10349223;28;20049;-68
2023/07/21 03:04:45;;;;;;;8.00;7.22;;;;;;;;;;10345829;28;20139;-69
2023/07/21 03:09:41;;;;;;;8.65;7.63;;;;;;;;;;10346890;28;20040;-68
2023/07/21 03:14:38;;;;;;;8.65;7.85;;;;;;;;;;10353952;28;20277;-67
2023/07/21 03:19:34;;;;;;;8.35;7.70;;;;;;;;;;10356764;28;20086;-67
2023/07/21 03:24:30;;;;;;;9.20;8.40;;;;;;;;;;10340314;28;20048;-67
2023/07/21 03:29:27;;;;;;;9.40;8.50;;;;;;;;;;10342062;28;20040;-69
2023/07/21 03:34:25;;;;;;;9.50;8.52;;;;;;;;;;10351324;28;20055;-68
2023/07/21 03:39:23;;;;;;;9.05;8.25;;;;;;;;;;10348092;28;20055;-69
2023/07/21 03:44:19;;;;;;;8.98;8.25;;;;;;;;;;10344831;28;20644;-67
2023/07/21 03:49:15;;;;;;;9.25;8.35;;;;;;;;;;10350192;28;20055;-67
2023/07/21 03:54:12;;;;;;;9.13;8.32;;;;;;;;;;10354437;28;20044;-67
2023/07/21 03:59:08;;;;;;;9.07;8.30;;;;;;;;;;10350596;28;20584;-67
2023/07/21 04:04:05;;;;;;;9.90;9.00;;;;;;;;;;10344843;28;20048;-68
2023/07/21 04:09:01;;;;;;;8.95;7.85;;;;;;;;;;10345050;28;20474;-66
2023/07/21 04:13:59;;;;;;;9.90;8.95;;;;;;;;;;10344343;28;20056;-67
2023/07/21 04:18:56;;;;;;;10.40;8.35;;;;;;;;;;10341735;28;20052;-66
2023/07/21 04:23:52;;;;;;;10.13;9.27;;;;;;;;;;10344283;28;20074;-67
2023/07/21 04:28:49;;;;;;;9.20;8.50;;;;;;;;;;10337279;28;20474;-67
2023/07/21 04:33:45;;;;;;;10.02;8.63;;;;;;;;;;10348044;28;20411;-69
2023/07/21 04:38:41;;;;;;;9.63;8.73;;;;;;;;;;10336700;28;20097;-69
2023/07/21 04:43:40;;;;;;;10.40;8.60;;;;;;;;;;10342385;28;20044;-69
2023/07/21 04:48:36;;;;;;;11.07;9.98;;;;;;;;;;10332644;28;20124;-68
2023/07/21 04:53:33;;;;;;;9.25;8.25;;;;;;;;;;10331393;28;20412;-68
2023/07/21 04:58:32;;;;;;;9.20;8.30;;;;;;;;;;10339643;28;20052;-68
2023/07/21 05:03:29;;;;;;;9.35;8.27;;;;;;;;;;10333378;28;20056;-69
2023/07/21 05:13:37;;;;;;;8.65;7.90;;;;;;;;;;9740017;26;20041;-69
2023/07/21 05:34:07;;;;;;;10.53;8.50;;;;;;;;;;10807743;22;20419;-70
2023/07/21 05:39:05;;;;;;;9.18;8.13;;;;;;;;;;10332108;28;20060;-70
2023/07/21 05:44:04;;;;;;;8.93;7.50;;;;;;;;;;10337747;28;20055;-70
2023/07/21 05:54:07;;;;;;;10.80;7.18;;;;;;;;;;10535357;22;20538;-70
2023/07/21 05:59:03;;;;;;;7.57;6.85;;;;;;;;;;10322763;28;20170;-70
2023/07/21 06:03:59;;;;;;;10.50;7.60;;;;;;;;;;10338998;28;20055;-70
2023/07/21 06:08:56;;;;;;;7.72;7.03;;;;;;;;;;10398713;22;20091;-70
2023/07/21 06:13:53;;;;;;;6.95;6.35;;;;;;;;;;10337951;28;20048;-70
2023/07/21 06:18:50;;;;;;;7.95;6.60;;;;;;;;;;10346674;28;20415;-70
2023/07/21 06:23:47;;;;;;;8.32;6.75;;;;;;;;;;10346329;28;20676;-69
2023/07/21 06:34:34;;;;;;;6.43;5.90;;;;;;;;;;4793749;26;20065;-70
2023/07/21 06:44:42;;;;;;;141.10;20.43;;;;;;;;;;4355914;22;20526;-70
2023/07/21 06:49:39;;;;;;;7.22;6.53;;;;;;;;;;10887278;22;20056;-71
2023/07/21 06:54:38;;;;;;;21.08;8.02;;;;;;;;;;10309388;28;20068;-71
2023/07/21 06:59:34;;;;;;;8.68;6.22;;;;;;;;;;10315735;28;20538;-70
2023/07/21 07:04:31;;;;;;;6.78;5.95;;;;;;;;;;10331400;28;20072;-70
2023/07/21 07:09:27;;;;;;;6.70;5.82;;;;;;;;;;10931329;22;20452;-71
2023/07/21 07:14:23;;;;;;;6.95;5.85;;;;;;;;;;10308190;28;20527;-71
2023/07/21 07:19:20;;;;;;;6.80;6.10;;;;;;;;;;10326321;28;20712;-71
2023/07/21 07:24:16;;;;;;;6.63;5.93;;;;;;;;;;10308115;28;20545;-70
2023/07/21 07:34:27;;;;;;;6.88;6.20;;;;;;;;;;9809135;26;20045;-71
2023/07/21 07:39:24;;;;;;;7.65;5.78;;;;;;;;;;10229941;28;20672;-70
2023/07/21 07:44:23;;;;;;;6.30;5.75;;;;;;;;;;10212272;28;20045;-71
2023/07/21 07:54:33;;;;;;;9.02;5.88;;;;;;;;;;11010588;22;20056;-72
2023/07/21 08:05:06;;;;;;;7.23;6.13;;;;;;;;;;5195403;26;20045;-71
2023/07/21 08:10:04;;;;;;;6.20;5.47;;;;;;;;;;10346806;22;20065;-71
2023/07/21 08:15:02;;;;;;;6.70;6.10;;;;;;;;;;10228452;28;20142;-72
2023/07/21 08:25:10;;;;;;;6.40;5.80;;;;;;;;;;9814442;26;20041;-71
2023/07/21 08:35:18;;;;;;;6.47;5.80;;;;;;;;;;10042140;26;20047;-70
2023/07/21 08:45:43;;;;;;;7.78;6.30;;;;;;;;;;10343169;28;20047;-70
2023/07/21 08:50:40;;;;;;;6.60;5.90;;;;;;;;;;10530649;22;20041;-70
2023/07/21 08:55:36;;;;;;;8.82;6.05;;;;;;;;;;10310296;28;20052;-70
2023/07/21 09:00:37;;;;;;;12.75;6.25;;;;;;;;;;10597332;22;20496;-70
2023/07/21 09:05:33;;;;;;;7.35;6.22;;;;;;;;;;10301236;28;20065;-70
2023/07/21 09:27:06;;;;;;;7.22;6.00;;;;;;;;;;10377232;22;20509;-70
2023/07/21 09:32:09;;;;;;;6.40;5.80;;;;;;;;;;10364718;22;20067;-71
2023/07/21 09:37:07;;;;;;;7.13;5.72;;;;;;;;;;10321268;28;20102;-71
2023/07/21 09:42:04;;;;;;;6.15;5.63;;;;;;;;;;10337819;28;20052;-70
2023/07/21 09:47:00;;;;;;;6.50;5.90;;;;;;;;;;10354259;28;20519;-70
2023/07/21 09:51:57;;;;;;;6.93;6.32;;;;;;;;;;10351495;28;20836;-70
2023/07/21 09:56:54;;;;;;;6.72;5.65;;;;;;;;;;10355360;28;20063;-70
2023/07/21 10:01:51;;;;;;;6.65;6.10;;;;;;;;;;10417954;22;20047;-70
2023/07/21 10:06:47;;;;;;;6.28;5.78;;;;;;;;;;10318969;28;20040;-70
2023/07/21 10:11:44;;;;;;;6.68;6.07;;;;;;;;;;10374076;27;20043;-70
2023/07/21 10:16:40;;;;;;;6.15;5.55;;;;;;;;;;10381140;28;20044;-70
2023/07/21 10:26:46;;;;;;;6.80;6.10;;;;;;;;;;2805136;26;20052;-70
2023/07/21 10:42:07;;;;;;;6.88;6.00;;;;;;;;;;8596882;22;20047;-71
2023/07/21 10:47:05;;;;;;;7.22;6.50;;;;;;;;;;10382609;28;20051;-70
2023/07/21 10:57:13;;;;;;;6.40;5.90;;;;;;;;;;6661216;26;20121;-72
2023/07/21 11:07:46;;;;;;;6.35;5.78;;;;;;;;;;5991706;22;20047;-72
2023/07/21 11:12:48;;;;;;;6.00;5.50;;;;;;;;;;10322731;28;20102;-72
2023/07/21 11:17:46;;;;;;;6.75;6.25;;;;;;;;;;10326339;28;20044;-71
2023/07/21 11:22:43;;;;;;;5.93;5.43;;;;;;;;;;10317221;28;20048;-71
2023/07/21 11:27:43;;;;;;;5.97;5.47;;;;;;;;;;10323161;28;20044;-71
2023/07/21 11:32:39;;;;;;;6.32;5.80;;;;;;;;;;10648248;22;20067;-71
2023/07/21 11:37:37;;;;;;;6.20;5.70;;;;;;;;;;10334151;28;20126;-71
2023/07/21 11:42:47;;;;;;;5.95;5.35;;;;;;;;;;10346028;28;20056;-71
2023/07/21 11:47:44;;;;;;;6.88;6.28;;;;;;;;;;10336260;28;20560;-69
2023/07/21 11:52:41;;;;;;;17.92;6.93;;;;;;;;;;10351905;28;20812;-71
2023/07/21 11:57:37;;;;;;;8.13;5.55;;;;;;;;;;10341102;28;20048;-72
2023/07/21 12:03:10;;;;;;;;;;;;;;;;;;;;;
2023/07/21 12:08:39;;;;;;;6.90;5.38;;;;;;;;;;10393453;27;20047;-70
2023/07/21 12:13:36;;;;;;;7.03;6.20;;;;;;;;;;10377383;28;20121;-70
2023/07/21 12:24:01;;;;;;;5.65;5.15;;;;;;;;;;10320893;22;20045;-69
2023/07/21 12:28:57;;;;;;;12.25;6.38;;;;;;;;;;10329298;28;20135;-69
2023/07/21 12:33:58;;;;;;;13.00;6.38;;;;;;;;;;10346117;28;20480;-69
2023/07/21 12:44:27;;;;;;;6.00;5.40;;;;;;;;;;2609570;26;20393;-69
2023/07/21 12:49:25;;;;;;;5.85;5.32;;;;;;;;;;10487388;22;20139;-70
2023/07/21 12:54:21;;;;;;;6.93;6.32;;;;;;;;;;10338358;28;20052;-70
2023/07/21 12:59:18;;;;;;;5.95;5.45;;;;;;;;;;10344335;28;20055;-70
2023/07/21 13:04:15;;;;;;;5.63;5.13;;;;;;;;;;10336192;28;20431;-70
2023/07/21 13:09:16;;;;;;;;;;;;;;;;;;10352737;22;20083;-70
2023/07/21 13:14:12;;;;;;;6.18;5.57;;;;;;;;;;10270475;28;19963;-71
2023/07/21 13:25:00;;;;;;;6.75;6.25;;;;;;;;;;10348059;28;20060;-70
2023/07/21 13:29:56;;;;;;;5.97;5.47;;;;;;;;;;10842165;22;20052;-70
2023/07/21 13:34:53;;;;;;;5.80;5.30;;;;;;;;;;10305030;28;20060;-70
2023/07/21 13:39:49;;;;;;;5.72;5.22;;;;;;;;;;10291150;28;20041;-70
2023/07/21 13:44:45;;;;;;;6.35;4.95;;;;;;;;;;10301928;28;20078;-70
2023/07/21 13:49:49;;;;;;;8.38;5.38;;;;;;;;;;10714784;22;20585;-70
2023/07/21 13:54:50;;;;;;;5.78;5.25;;;;;;;;;;10308009;28;20048;-70
2023/07/21 13:59:47;;;;;;;5.95;5.45;;;;;;;;;;10294995;28;20101;-70
2023/07/21 14:04:43;;;;;;;5.85;5.40;;;;;;;;;;10304072;28;20459;-70
2023/07/21 14:14:51;;;;;;;5.35;4.95;;;;;;;;;;10508326;22;20039;-70
2023/07/21 14:19:48;;;;;;;5.30;4.90;;;;;;;;;;10704008;22;20504;-70
2023/07/21 14:24:44;;;;;;;5.45;4.95;;;;;;;;;;10271789;28;20054;-70
2023/07/21 14:34:45;;;;;;;5.47;5.07;;;;;;;;;;11073956;22;20045;-70
2023/07/21 14:44:47;;;;;;;6.75;6.00;;;;;;;;;;10416107;22;20659;-70
2023/07/21 14:54:52;;;;;;;6.00;5.40;;;;;;;;;;10393656;22;20475;-69
2023/07/21 15:04:54;;;;;;;5.55;4.90;;;;;;;;;;10292783;28;20049;-69
2023/07/21 15:09:51;;;;;;;5.95;5.40;;;;;;;;;;10364679;22;20098;-69
2023/07/21 15:14:47;;;;;;;5.28;4.88;;;;;;;;;;10307819;28;20799;-69
2023/07/21 15:19:46;;;;;;;5.80;5.30;;;;;;;;;;10303104;28;20062;-70
2023/07/21 15:24:42;;;;;;;5.40;5.00;;;;;;;;;;10334156;28;20056;-69
2023/07/21 15:35:12;;;;;;;6.87;5.37;;;;;;;;;;10335352;22;20040;-70
2023/07/21 15:50:51;;;;;;;5.60;5.10;;;;;;;;;;10315076;28;20040;-70
2023/07/21 15:55:48;;;;;;;7.30;6.60;;;;;;;;;;10313368;28;20055;-70
2023/07/21 16:11:12;;;;;;;5.65;5.15;;;;;;;;;;10389463;27;20471;-70
2023/07/21 16:16:08;;;;;;;6.03;5.43;;;;;;;;;;10402329;27;20638;-70
2023/07/21 16:21:05;;;;;;;5.75;5.25;;;;;;;;;;10396909;27;20047;-70
2023/07/21 16:26:01;;;;;;;5.78;5.28;;;;;;;;;;10399891;27;20507;-70
2023/07/21 16:30:58;;;;;;;5.85;5.35;;;;;;;;;;10560441;22;20488;-70
2023/07/21 16:35:54;;;;;;;6.05;5.55;;;;;;;;;;10260652;28;20502;-70
2023/07/21 16:46:16;;;;;;;5.75;5.25;;;;;;;;;;2566956;26;20053;-70
2023/07/21 16:51:12;;;;;;;7.32;6.38;;;;;;;;;;10321286;22;20048;-71
2023/07/21 16:56:09;;;;;;;6.13;5.53;;;;;;;;;;10299503;28;20123;-70
2023/07/21 17:06:10;;;;;;;16.38;14.00;;;;;;;;;;10648836;22;20041;-70
2023/07/21 17:16:18;;;;;;;5.57;5.07;;;;;;;;;;10588400;22;20044;-71
2023/07/21 17:21:15;;;;;;;6.05;5.07;;;;;;;;;;10364888;28;20075;-71
2023/07/21 17:26:11;;;;;;;5.38;4.95;;;;;;;;;;10359917;28;20575;-70
2023/07/21 17:31:08;;;;;;;5.38;4.85;;;;;;;;;;10357662;28;20063;-70
2023/07/21 17:36:05;;;;;;;5.28;4.65;;;;;;;;;;10360144;28;20133;-70
2023/07/21 17:41:02;;;;;;;7.88;5.40;;;;;;;;;;10396397;22;20064;-70
2023/07/21 17:46:00;;;;;;;7.80;5.55;;;;;;;;;;10361761;28;20461;-70
2023/07/21 17:50:57;;;;;;;9.48;6.85;;;;;;;;;;10580790;22;20048;-70
2023/07/21 17:55:55;;;;;;;7.15;6.20;;;;;;;;;;10341412;28;20139;-70
2023/07/21 18:00:51;;;;;;;7.65;6.07;;;;;;;;;;10378500;27;21530;-69
2023/07/21 18:05:48;;;;;;;6.82;6.10;;;;;;;;;;10392631;27;20499;-70
2023/07/21 18:15:55;;;;;;;9.43;8.55;;;;;;;;;;9210037;22;20503;-70
2023/07/21 18:26:04;;;;;;;9.40;8.43;;;;;;;;;;10103095;26;20080;-70
2023/07/21 18:36:12;;;;;;;10.70;9.73;;;;;;;;;;10400929;22;20053;-70
2023/07/21 18:41:09;;;;;;;11.40;10.25;;;;;;;;;;10323869;22;20048;-70
2023/07/21 18:46:05;;;;;;;11.93;10.88;;;;;;;;;;10305622;28;20098;-70
2023/07/21 18:51:02;;;;;;;12.25;11.18;;;;;;;;;;11144817;22;20089;-70
2023/07/21 18:55:58;;;;;;;11.93;10.95;;;;;;;;;;10389412;27;20078;-70
2023/07/21 19:11:21;;;;;;;10.33;9.33;;;;;;;;;;8602408;22;20044;-71
2023/07/21 19:16:18;;;;;;;11.00;10.00;;;;;;;;;;10306644;28;20076;-71
2023/07/21 19:21:14;;;;;;;10.80;9.80;;;;;;;;;;10982182;22;20668;-71
2023/07/21 19:26:10;;;;;;;10.77;9.85;;;;;;;;;;10301856;28;20053;-71
2023/07/21 19:58:15;;;;;;;11.68;10.68;;;;;;;;;;10265099;28;20059;-70
2023/07/21 20:03:12;;;;;;;12.18;11.18;;;;;;;;;;10306100;28;20057;-71
2023/07/21 20:08:09;;;;;;;12.80;11.65;;;;;;;;;;10306697;28;20555;-71
2023/07/21 20:13:05;;;;;;;11.02;10.23;;;;;;;;;;10309645;28;20128;-71
2023/07/21 20:23:34;;;;;;;11.38;10.48;;;;;;;;;;2592291;26;20080;-71
2023/07/21 20:33:47;;;;;;;14.75;13.23;;;;;;;;;;10574483;22;20076;-71
2023/07/21 21:05:28;;;;;;;15.53;14.03;;;;;;;;;;10907571;22;20039;-71
2023/07/21 21:10:24;;;;;;;12.75;11.57;;;;;;;;;;10369850;28;20105;-69
2023/07/21 21:15:21;;;;;;;19.55;17.17;;;;;;;;;;10340646;28;20419;-68
2023/07/21 21:20:17;;;;;;;15.35;13.57;;;;;;;;;;10348102;28;20052;-67
2023/07/21 21:25:14;;;;;;;12.88;11.55;;;;;;;;;;10352544;28;20082;-69
2023/07/21 21:30:10;;;;;;;11.35;10.35;;;;;;;;;;10366996;28;20622;-69
2023/07/21 21:35:07;;;;;;;8.68;7.88;;;;;;;;;;10355247;28;20051;-69
2023/07/21 21:40:03;;;;;;;9.57;8.77;;;;;;;;;;10367097;28;20463;-69
2023/07/21 21:45:00;;;;;;;8.32;7.50;;;;;;;;;;10360611;28;20415;-68
2023/07/21 21:49:56;;;;;;;7.07;6.38;;;;;;;;;;10364458;28;20048;-68
2023/07/21 21:54:53;;;;;;;8.55;7.72;;;;;;;;;;10360296;28;20056;-67
2023/07/21 21:59:49;;;;;;;9.32;8.43;;;;;;;;;;10366260;28;20056;-67
2023/07/21 22:04:45;;;;;;;8.20;7.50;;;;;;;;;;10361193;28;20516;-68
2023/07/21 22:09:44;;;;;;;8.00;7.40;;;;;;;;;;10368694;28;20063;-68
2023/07/21 22:14:40;;;;;;;8.38;7.68;;;;;;;;;;10362335;28;20062;-69
2023/07/21 22:19:51;;;;;;;8.90;8.20;;;;;;;;;;10366524;28;20044;-68
2023/07/21 22:25:06;;;;;;;9.18;8.32;;;;;;;;;;10351323;28;20052;-68
2023/07/21 22:30:03;;;;;;;9.20;8.18;;;;;;;;;;10366534;28;20075;-67
2023/07/21 22:34:59;;;;;;;9.80;9.00;;;;;;;;;;10361119;28;20054;-68
2023/07/21 22:39:56;;;;;;;9.73;8.93;;;;;;;;;;10361387;28;20137;-69
2023/07/21 22:44:52;;;;;;;9.27;8.48;;;;;;;;;;10346250;28;20051;-68
2023/07/21 22:49:49;;;;;;;8.80;8.10;;;;;;;;;;10367131;28;20044;-68
2023/07/21 22:54:45;;;;;;;9.43;8.52;;;;;;;;;;10356977;28;20048;-68
2023/07/21 22:59:41;;;;;;;10.35;9.35;;;;;;;;;;10362067;28;20048;-68
2023/07/21 23:04:38;;;;;;;13.93;10.35;;;;;;;;;;10363151;28;20043;-68
2023/07/21 23:09:34;;;;;;;11.25;10.13;;;;;;;;;;10365516;28;20043;-68
2023/07/21 23:14:30;;;;;;;10.27;9.25;;;;;;;;;;10358054;28;20079;-68
2023/07/21 23:19:27;;;;;;;10.65;9.52;;;;;;;;;;10365926;28;20096;-68
2023/07/21 23:24:26;;;;;;;12.80;11.05;;;;;;;;;;10345745;28;20055;-68
2023/07/21 23:29:22;;;;;;;11.43;10.25;;;;;;;;;;10360165;28;20079;-68
2023/07/21 23:34:19;;;;;;;11.02;9.57;;;;;;;;;;10363164;28;20487;-68
2023/07/21 23:39:15;;;;;;;11.48;10.48;;;;;;;;;;10357311;28;20068;-68
2023/07/21 23:44:11;;;;;;;11.95;10.80;;;;;;;;;;10370491;28;20057;-69
2023/07/21 23:49:08;;;;;;;12.07;10.88;;;;;;;;;;10355272;28;20044;-68
2023/07/21 23:54:04;;;;;;;11.27;10.20;;;;;;;;;;10361152;28;20089;-69
2023/07/21 23:59:01;;;;;;;12.48;11.23;;;;;;;;;;10357592;28;20067;-68
